Albany, California
Current Conditions -  °F | °C
As of 1:15 PM on Monday 22 Dec 2014 (Local Time) from KOAK Reporting Station
Moderate Fog Moderate Fog  
Wind Chill: 55°   Ceiling: 100
Heat Index: 55°   Visibility: 0.5mi
Dew Point: 55°   Wind: 7mph
Humidity: 100%   Direction: 290°WNW
Pressure: 30.22"   Gusts: NA
Location:  37.89°N, 122.29°W
Report Text: KOAK 222115Z 29006KT 1/2SM FG BKN001 BKN016 13/13 A3022 RMK AO2
Loading
Personal Weather Stations






























Interactive Weather Map New forecast layout! Learn more

10-Day Weather Forecast

Advertisements
Track Severe Weather on mobile